createdAt,value
2023-05-16T00:01:35.704Z,11.25
2023-05-16T00:04:04.358Z,11.52
2023-05-16T00:06:32.219Z,10.75
2023-05-16T00:09:00.419Z,10.65
2023-05-16T00:11:27.750Z,11.10
2023-05-16T00:13:54.961Z,11.00
2023-05-16T00:16:22.835Z,11.75
2023-05-16T00:18:50.332Z,11.85
2023-05-16T00:21:17.564Z,11.75
2023-05-16T00:23:44.796Z,10.77
2023-05-16T00:26:12.148Z,10.82
2023-05-16T00:28:42.358Z,11.38
2023-05-16T00:31:09.589Z,11.90
2023-05-16T00:33:36.816Z,12.40
2023-05-16T00:36:04.260Z,11.32
2023-05-16T00:38:31.617Z,11.18
2023-05-16T00:41:00.659Z,12.25
2023-05-16T00:43:27.842Z,10.32
2023-05-16T00:45:58.150Z,11.70
2023-05-16T00:48:26.074Z,11.95
2023-05-16T00:50:53.889Z,11.80
2023-05-16T00:53:24.804Z,12.10
2023-05-16T00:55:52.418Z,12.10
2023-05-16T00:58:21.391Z,12.38
2023-05-16T01:00:49.021Z,12.40
2023-05-16T01:03:16.615Z,12.57
2023-05-16T01:05:44.172Z,12.18
2023-05-16T01:08:13.207Z,11.55
2023-05-16T01:10:59.356Z,12.10
2023-05-16T01:13:44.726Z,12.10
2023-05-16T01:16:23.136Z,11.98
2023-05-16T01:19:11.835Z,11.85
2023-05-16T01:22:04.988Z,11.60
2023-05-16T01:25:00.310Z,11.63
2023-05-16T01:27:30.158Z,11.88
2023-05-16T01:29:58.535Z,12.13
2023-05-16T01:32:25.906Z,11.95
2023-05-16T01:34:53.787Z,12.57
2023-05-16T01:37:32.590Z,13.13
2023-05-16T01:40:12.518Z,13.88
2023-05-16T01:42:45.170Z,13.55
2023-05-16T01:45:24.157Z,13.00
2023-05-16T01:48:09.053Z,13.00
2023-05-16T01:50:47.777Z,12.77
2023-05-16T01:53:25.667Z,12.88
2023-05-16T01:55:56.295Z,12.77
2023-05-16T01:58:28.624Z,12.10
2023-05-16T02:01:05.913Z,13.10
2023-05-16T02:03:33.950Z,12.45
2023-05-16T02:06:01.502Z,12.60
2023-05-16T02:08:29.528Z,12.82
2023-05-16T02:10:56.824Z,12.63
2023-05-16T02:13:24.074Z,12.77
2023-05-16T02:15:53.072Z,12.75
2023-05-16T02:18:20.291Z,12.60
2023-05-16T02:20:48.862Z,13.93
2023-05-16T02:23:16.822Z,13.45
2023-05-16T02:25:44.166Z,14.07
2023-05-16T02:28:11.722Z,13.43
2023-05-16T02:30:39.064Z,12.60
2023-05-16T02:33:06.383Z,13.23
2023-05-16T02:35:33.719Z,13.43
2023-05-16T02:38:00.970Z,13.93
2023-05-16T02:40:28.331Z,13.52
2023-05-16T02:42:56.702Z,13.27
2023-05-16T02:45:24.101Z,13.95
2023-05-16T02:47:51.418Z,14.15
2023-05-16T02:50:19.281Z,12.55
2023-05-16T02:52:47.371Z,14.02
2023-05-16T02:57:44.859Z,14.18
2023-05-16T03:00:15.656Z,13.60
2023-05-16T03:02:44.262Z,12.23
2023-05-16T03:05:13.120Z,12.95
2023-05-16T03:07:41.212Z,13.02
2023-05-16T03:10:08.971Z,13.63
2023-05-16T03:12:36.237Z,14.88
2023-05-16T03:15:04.330Z,13.07
2023-05-16T03:17:31.950Z,14.45
2023-05-16T03:19:59.268Z,13.73
2023-05-16T03:22:26.445Z,13.80
2023-05-16T03:24:53.627Z,14.75
2023-05-16T03:27:21.123Z,15.68
2023-05-16T03:29:50.529Z,13.38
2023-05-16T03:32:17.937Z,14.25
2023-05-16T03:34:45.248Z,13.55
2023-05-16T03:37:14.976Z,13.48
2023-05-16T03:39:42.168Z,13.75
2023-05-16T03:42:10.073Z,14.85
2023-05-16T03:44:37.313Z,12.55
2023-05-16T03:47:05.112Z,13.02
2023-05-16T03:49:32.387Z,12.90
2023-05-16T03:51:59.615Z,13.23
2023-05-16T03:54:27.196Z,13.85
2023-05-16T03:56:54.436Z,14.50
2023-05-16T03:59:21.749Z,14.43
2023-05-16T04:01:50.440Z,13.43
2023-05-16T04:04:17.637Z,13.73
2023-05-16T04:06:44.964Z,14.57
2023-05-16T04:09:12.343Z,14.43
2023-05-16T04:11:39.726Z,14.77
2023-05-16T04:14:07.472Z,14.40
2023-05-16T04:16:35.162Z,15.63
2023-05-16T04:19:04.335Z,14.60
2023-05-16T04:21:32.035Z,14.35
2023-05-16T04:23:59.564Z,15.27
2023-05-16T04:26:27.703Z,15.30
2023-05-16T04:28:54.913Z,14.48
2023-05-16T04:31:23.312Z,15.13
2023-05-16T04:33:50.627Z,14.60
2023-05-16T04:36:17.918Z,15.07
2023-05-16T04:38:46.919Z,15.13
2023-05-16T04:41:14.567Z,15.77
2023-05-16T04:43:42.350Z,14.95
2023-05-16T04:46:10.236Z,15.20
2023-05-16T04:48:37.590Z,15.55
2023-05-16T04:51:05.110Z,15.88
2023-05-16T04:53:32.634Z,15.25
2023-05-16T04:56:00.795Z,14.98
2023-05-16T04:58:27.990Z,15.30
2023-05-16T05:00:56.025Z,15.65
2023-05-16T05:03:23.541Z,15.23
2023-05-16T05:05:50.918Z,14.63
2023-05-16T05:08:19.173Z,14.88
2023-05-16T05:10:46.962Z,14.40
2023-05-16T05:13:14.298Z,14.00
2023-05-16T05:15:41.682Z,13.85
2023-05-16T05:18:09.073Z,13.65
2023-05-16T05:20:36.506Z,14.00
2023-05-16T05:23:03.898Z,14.57
2023-05-16T05:25:31.183Z,14.65
2023-05-16T05:27:58.483Z,15.27
2023-05-16T05:30:25.903Z,14.75
2023-05-16T05:32:54.855Z,13.30
2023-05-16T05:35:22.480Z,13.25
2023-05-16T05:37:49.720Z,14.07
2023-05-16T05:40:17.059Z,13.57
2023-05-16T05:42:46.883Z,12.18
2023-05-16T05:45:16.171Z,13.43
2023-05-16T05:47:44.232Z,12.40
2023-05-16T05:50:11.925Z,13.23
2023-05-16T05:52:39.362Z,12.70
2023-05-16T05:55:06.983Z,13.65
2023-05-16T05:57:34.159Z,13.02
2023-05-16T06:00:01.529Z,12.70
2023-05-16T06:02:36.068Z,12.98
2023-05-16T06:05:03.766Z,12.90
2023-05-16T06:07:31.365Z,13.10
2023-05-16T06:09:58.786Z,13.75
2023-05-16T06:12:26.025Z,14.32
2023-05-16T06:14:53.499Z,13.63
2023-05-16T06:17:20.877Z,13.50
2023-05-16T06:19:48.452Z,13.00
2023-05-16T06:22:15.807Z,17.55
2023-05-16T06:24:43.254Z,15.23
2023-05-16T06:27:10.649Z,12.65
2023-05-16T06:29:38.341Z,13.00
2023-05-16T06:32:05.992Z,13.85
2023-05-16T06:34:33.503Z,13.43
2023-05-16T06:37:00.977Z,13.20
2023-05-16T06:39:28.357Z,13.73
2023-05-16T06:41:56.754Z,13.73
2023-05-16T06:44:24.311Z,13.32
2023-05-16T06:46:51.689Z,13.45
2023-05-16T06:49:19.212Z,14.68
2023-05-16T06:51:46.842Z,13.48
2023-05-16T06:54:14.146Z,12.65
2023-05-16T06:56:41.510Z,11.90
2023-05-16T06:59:08.741Z,13.13
2023-05-16T07:01:36.451Z,11.68
2023-05-16T07:04:04.106Z,11.55
2023-05-16T07:06:31.644Z,12.20
2023-05-16T07:08:58.965Z,10.98
2023-05-16T07:11:26.213Z,12.25
2023-05-16T07:13:53.485Z,12.52
2023-05-16T07:16:20.757Z,11.65
2023-05-16T07:18:48.127Z,11.85
2023-05-16T07:21:15.540Z,9.93
2023-05-16T07:23:42.890Z,11.35
2023-05-16T07:26:10.171Z,11.27
2023-05-16T07:28:37.542Z,11.60
2023-05-16T07:31:05.049Z,11.15
2023-05-16T07:33:32.419Z,11.88
2023-05-16T07:36:12.128Z,13.18
2023-05-16T07:38:43.701Z,11.00
2023-05-16T07:41:11.131Z,11.48
2023-05-16T07:43:38.647Z,10.68
2023-05-16T07:46:06.562Z,11.43
2023-05-16T07:48:34.532Z,11.77
2023-05-16T07:51:02.661Z,11.63
2023-05-16T07:53:33.141Z,12.10
2023-05-16T07:56:00.803Z,12.40
2023-05-16T07:58:28.165Z,11.10
2023-05-16T08:00:55.607Z,11.43
2023-05-16T08:03:25.797Z,11.73
2023-05-16T08:05:53.529Z,11.48
2023-05-16T08:08:21.110Z,11.38
2023-05-16T08:10:48.434Z,11.35
2023-05-16T08:13:15.719Z,10.77
2023-05-16T08:15:43.444Z,10.77
2023-05-16T08:18:15.593Z,10.68
2023-05-16T08:20:43.131Z,10.57
2023-05-16T08:23:10.599Z,10.93
2023-05-16T08:25:38.180Z,10.80
2023-05-16T08:28:05.482Z,10.75
2023-05-16T08:30:32.744Z,9.02
2023-05-16T08:33:00.193Z,7.97
2023-05-16T08:35:27.704Z,9.38
2023-05-16T08:37:55.508Z,9.15
2023-05-16T08:40:26.425Z,8.68
2023-05-16T08:42:54.478Z,8.95
2023-05-16T08:45:23.618Z,9.40
2023-05-16T08:47:54.034Z,9.30
2023-05-16T08:50:22.128Z,9.52
2023-05-16T08:52:52.633Z,10.10
2023-05-16T08:55:22.437Z,12.18
2023-05-16T08:57:51.734Z,10.65
2023-05-16T09:00:19.790Z,10.10
2023-05-16T09:02:47.751Z,10.05
2023-05-16T09:05:16.486Z,10.75
2023-05-16T09:07:44.840Z,11.05
2023-05-16T09:10:12.849Z,10.00
2023-05-16T09:12:42.117Z,11.50
2023-05-16T09:15:11.493Z,12.32
2023-05-16T09:17:42.627Z,12.05
2023-05-16T09:20:18.601Z,11.65
2023-05-16T09:22:59.632Z,11.50
2023-05-16T09:25:31.394Z,11.88
2023-05-16T09:28:02.846Z,13.57
2023-05-16T09:30:32.660Z,13.90
2023-05-16T09:33:00.194Z,14.90
2023-05-16T09:37:58.218Z,13.88
2023-05-16T09:40:25.793Z,13.55
2023-05-16T09:43:04.880Z,13.65
2023-05-16T09:45:33.382Z,13.57
2023-05-16T09:48:08.862Z,13.07
2023-05-16T09:50:37.981Z,14.25
2023-05-16T09:53:06.214Z,13.85
2023-05-16T09:55:34.213Z,13.25
2023-05-16T09:58:01.504Z,13.82
2023-05-16T10:00:34.053Z,12.35
2023-05-16T10:03:04.792Z,13.60
2023-05-16T10:05:34.003Z,11.70
2023-05-16T10:08:03.750Z,10.50
2023-05-16T10:10:33.894Z,10.98
2023-05-16T10:13:05.678Z,11.18
2023-05-16T10:15:35.697Z,10.75
2023-05-16T10:18:04.935Z,11.68
2023-05-16T10:20:32.462Z,10.27
2023-05-16T10:23:00.184Z,10.05
2023-05-16T10:25:37.065Z,10.40
2023-05-16T10:28:04.660Z,11.05
2023-05-16T10:30:34.768Z,10.25
2023-05-16T10:33:04.914Z,10.80
2023-05-16T10:35:35.348Z,10.20
2023-05-16T10:38:03.657Z,9.98
2023-05-16T10:40:32.471Z,10.05
2023-05-16T10:43:02.482Z,9.88
2023-05-16T10:45:30.718Z,9.77
2023-05-16T10:48:07.044Z,10.38
2023-05-16T10:50:46.132Z,9.30
2023-05-16T10:53:34.665Z,8.77
2023-05-16T10:56:02.351Z,7.90
2023-05-16T10:58:38.778Z,8.02
2023-05-16T11:01:25.313Z,8.23
2023-05-16T11:04:04.851Z,7.57
2023-05-16T11:06:42.811Z,9.00
2023-05-16T11:09:16.154Z,8.30
2023-05-16T11:11:49.076Z,9.02
2023-05-16T11:14:26.880Z,8.60
2023-05-16T11:17:00.682Z,9.45
2023-05-16T11:19:32.610Z,8.75
2023-05-16T11:22:19.632Z,8.50
2023-05-16T11:25:05.077Z,8.32
2023-05-16T11:27:48.069Z,8.20
2023-05-16T11:30:22.006Z,8.07
2023-05-16T11:32:50.931Z,7.63
2023-05-16T11:35:18.895Z,8.57
2023-05-16T11:37:47.907Z,7.93
2023-05-16T11:40:17.581Z,7.40
2023-05-16T11:42:48.506Z,7.63
2023-05-16T11:45:17.834Z,7.28
2023-05-16T11:47:48.213Z,7.35
2023-05-16T11:50:22.355Z,7.13
2023-05-16T11:52:54.546Z,8.05
2023-05-16T11:55:41.477Z,6.70
2023-05-16T11:58:10.415Z,7.18
2023-05-16T12:00:47.520Z,6.70
2023-05-16T12:03:15.381Z,6.80
2023-05-16T12:05:59.822Z,6.70
2023-05-16T12:08:27.233Z,6.78
2023-05-16T12:10:54.802Z,6.47
2023-05-16T12:13:24.162Z,7.85
2023-05-16T12:15:53.076Z,6.78
2023-05-16T12:18:21.991Z,7.05
2023-05-16T12:20:49.846Z,7.20
2023-05-16T12:23:17.069Z,7.10
2023-05-16T12:25:49.464Z,6.78
2023-05-16T12:28:16.888Z,6.45
2023-05-16T12:30:48.048Z,6.78
2023-05-16T12:33:17.322Z,7.18
2023-05-16T12:35:46.983Z,7.88
2023-05-16T12:38:15.784Z,7.38
2023-05-16T12:40:44.527Z,7.38
2023-05-16T12:43:21.030Z,7.85
2023-05-16T12:45:56.868Z,7.63
2023-05-16T12:48:30.684Z,7.20
2023-05-16T12:50:57.913Z,7.43
2023-05-16T12:53:25.680Z,7.93
2023-05-16T12:55:52.906Z,7.15
2023-05-16T12:58:20.547Z,7.93
2023-05-16T13:00:48.751Z,7.93
2023-05-16T13:03:16.486Z,7.97
2023-05-16T13:05:44.591Z,7.28
2023-05-16T13:08:11.897Z,6.97
2023-05-16T13:10:39.680Z,7.47
2023-05-16T13:13:07.082Z,7.93
2023-05-16T13:15:34.425Z,7.45
2023-05-16T13:18:02.064Z,6.97
2023-05-16T13:20:29.702Z,7.25
2023-05-16T13:22:57.136Z,7.28
2023-05-16T13:25:25.555Z,6.70
2023-05-16T13:27:52.992Z,7.32
2023-05-16T13:30:20.380Z,7.50
2023-05-16T13:32:48.674Z,6.90
2023-05-16T13:35:16.272Z,6.95
2023-05-16T13:37:43.606Z,7.10
2023-05-16T13:40:11.406Z,6.57
2023-05-16T13:42:39.008Z,6.78
2023-05-16T13:45:07.398Z,6.25
2023-05-16T13:47:34.945Z,6.07
2023-05-16T13:50:09.409Z,6.40
2023-05-16T13:52:40.434Z,6.80
2023-05-16T13:55:08.575Z,6.20
2023-05-16T13:57:36.848Z,6.32
2023-05-16T14:02:43.628Z,5.80
2023-05-16T14:05:11.279Z,6.10
2023-05-16T14:07:38.827Z,5.70
2023-05-16T14:10:07.212Z,5.57
2023-05-16T14:12:34.653Z,5.50
2023-05-16T14:15:02.033Z,5.95
2023-05-16T14:17:29.799Z,5.75
2023-05-16T14:19:57.549Z,5.95
2023-05-16T14:22:25.627Z,5.50
2023-05-16T14:24:53.223Z,5.75
2023-05-16T14:27:20.731Z,5.60
2023-05-16T14:29:49.052Z,4.90
2023-05-16T14:32:16.621Z,4.95
2023-05-16T14:34:44.097Z,5.05
2023-05-16T14:37:11.613Z,4.90
2023-05-16T14:39:38.977Z,5.70
2023-05-16T14:42:08.582Z,5.30
2023-05-16T14:44:36.218Z,5.55
2023-05-16T14:47:04.625Z,5.30
2023-05-16T14:49:32.387Z,5.10
2023-05-16T14:51:59.935Z,5.43
2023-05-16T14:54:27.253Z,6.03
2023-05-16T14:56:55.728Z,5.93
2023-05-16T14:59:23.069Z,5.88
2023-05-16T15:01:50.438Z,5.20
2023-05-16T15:04:17.708Z,5.30
2023-05-16T15:06:45.068Z,5.25
2023-05-16T15:09:12.827Z,5.43
2023-05-16T15:11:40.299Z,5.47
2023-05-16T15:14:07.622Z,5.40
2023-05-16T15:16:35.099Z,5.40
2023-05-16T15:19:02.852Z,5.68
2023-05-16T15:21:32.461Z,5.60
2023-05-16T15:23:59.853Z,5.25
2023-05-16T15:26:27.379Z,5.03
2023-05-16T15:28:55.857Z,5.05
2023-05-16T15:31:23.315Z,5.60
2023-05-16T15:33:50.874Z,5.60
2023-05-16T15:36:18.817Z,4.95
2023-05-16T15:38:47.862Z,4.88
2023-05-16T15:41:32.131Z,4.65
2023-05-16T15:44:03.352Z,4.45
2023-05-16T15:46:33.235Z,5.05
2023-05-16T15:49:00.986Z,4.97
2023-05-16T15:51:28.317Z,4.78
2023-05-16T15:53:55.838Z,4.93
2023-05-16T15:56:23.262Z,4.95
2023-05-16T15:58:50.506Z,4.90
2023-05-16T16:01:17.934Z,4.70
2023-05-16T16:03:45.350Z,4.78
2023-05-16T16:06:13.067Z,5.05
2023-05-16T16:08:40.531Z,4.50
2023-05-16T16:11:07.889Z,4.65
2023-05-16T16:13:35.340Z,4.97
2023-05-16T16:16:02.810Z,4.90
2023-05-16T16:18:30.223Z,4.45
2023-05-16T16:20:57.733Z,4.53
2023-05-16T16:23:25.330Z,5.45
2023-05-16T16:25:53.297Z,4.75
2023-05-16T16:28:22.576Z,5.03
2023-05-16T16:30:50.654Z,4.82
2023-05-16T16:33:18.086Z,4.90
2023-05-16T16:35:45.815Z,4.70
2023-05-16T16:38:13.314Z,4.75
2023-05-16T16:40:40.536Z,5.10
2023-05-16T16:43:07.938Z,4.78
2023-05-16T16:45:35.259Z,4.72
2023-05-16T16:48:02.511Z,5.20
2023-05-16T16:50:31.154Z,4.85
2023-05-16T16:53:01.846Z,4.60
2023-05-16T16:55:29.348Z,4.72
2023-05-16T16:58:00.859Z,5.18
2023-05-16T17:00:28.533Z,4.63
2023-05-16T17:02:56.698Z,4.30
2023-05-16T17:05:24.050Z,5.28
2023-05-16T17:07:52.968Z,4.95
2023-05-16T17:10:22.251Z,4.57
2023-05-16T17:12:50.001Z,4.65
2023-05-16T17:15:17.823Z,4.35
2023-05-16T17:17:49.611Z,4.50
2023-05-16T17:20:17.333Z,4.15
2023-05-16T17:22:44.992Z,4.55
2023-05-16T17:25:13.345Z,4.03
2023-05-16T17:27:41.239Z,4.03
2023-05-16T17:30:10.590Z,4.57
2023-05-16T17:32:38.216Z,4.22
2023-05-16T17:35:06.421Z,4.63
2023-05-16T17:37:34.191Z,5.00
2023-05-16T17:40:01.576Z,4.85
2023-05-16T17:42:29.656Z,4.38
2023-05-16T17:44:57.011Z,4.00
2023-05-16T17:47:24.603Z,4.82
2023-05-16T17:49:52.365Z,4.15
2023-05-16T17:52:20.359Z,4.47
2023-05-16T17:54:48.235Z,4.00
2023-05-16T17:57:15.684Z,4.43
2023-05-16T17:59:43.103Z,4.78
2023-05-16T18:02:10.465Z,4.30
2023-05-16T18:04:38.255Z,4.50
2023-05-16T18:07:05.625Z,4.30
2023-05-16T18:09:33.111Z,4.13
2023-05-16T18:12:01.424Z,4.30
2023-05-16T18:14:28.939Z,4.25
2023-05-16T18:16:57.507Z,4.22
2023-05-16T18:19:26.615Z,4.18
2023-05-16T18:21:54.169Z,4.82
2023-05-16T18:24:21.405Z,4.43
2023-05-16T18:26:49.626Z,4.47
2023-05-16T18:29:17.083Z,4.82
2023-05-16T18:31:44.878Z,5.10
2023-05-16T18:34:12.212Z,5.20
2023-05-16T18:36:39.600Z,5.10
2023-05-16T18:39:07.270Z,5.20
2023-05-16T18:41:34.693Z,5.20
2023-05-16T18:44:02.067Z,4.90
2023-05-16T18:46:29.434Z,5.18
2023-05-16T18:48:57.998Z,4.75
2023-05-16T18:51:25.869Z,5.10
2023-05-16T18:53:53.435Z,4.97
2023-05-16T18:56:22.605Z,4.80
2023-05-16T18:58:49.991Z,4.60
2023-05-16T19:01:17.504Z,4.55
2023-05-16T19:03:44.946Z,4.88
2023-05-16T19:06:13.585Z,4.97
2023-05-16T19:08:47.926Z,5.35
2023-05-16T19:11:17.827Z,4.82
2023-05-16T19:13:45.828Z,4.32
2023-05-16T19:16:14.729Z,4.60
2023-05-16T19:18:43.007Z,5.20
2023-05-16T19:21:13.647Z,4.80
2023-05-16T19:23:41.490Z,5.25
2023-05-16T19:26:08.892Z,5.68
2023-05-16T19:28:37.664Z,8.70
2023-05-16T19:31:05.117Z,7.75
2023-05-16T19:33:32.572Z,6.20
2023-05-16T19:36:00.433Z,6.07
2023-05-16T19:38:27.889Z,6.07
2023-05-16T19:40:55.319Z,5.45
2023-05-16T19:43:23.379Z,5.53
2023-05-16T19:45:51.057Z,6.03
2023-05-16T19:48:18.741Z,6.28
2023-05-16T19:50:46.295Z,5.53
2023-05-16T19:53:13.700Z,6.10
2023-05-16T19:55:41.195Z,6.25
2023-05-16T19:58:08.822Z,5.82
2023-05-16T20:00:36.238Z,6.00
2023-05-16T20:03:03.751Z,5.78
2023-05-16T20:05:31.412Z,5.32
2023-05-16T20:07:59.017Z,5.18
2023-05-16T20:10:26.526Z,5.03
2023-05-16T20:12:53.982Z,5.88
2023-05-16T20:15:21.346Z,5.55
2023-05-16T20:17:48.757Z,5.10
2023-05-16T20:20:16.495Z,5.30
2023-05-16T20:22:44.071Z,5.00
2023-05-16T20:25:12.193Z,5.30
2023-05-16T20:27:39.902Z,4.20
2023-05-16T20:30:07.918Z,4.68
2023-05-16T20:32:35.677Z,5.82
2023-05-16T20:35:04.993Z,5.32
2023-05-16T20:37:33.494Z,5.88
2023-05-16T20:40:00.811Z,5.38
2023-05-16T20:42:28.201Z,4.93
2023-05-16T20:44:56.035Z,4.88
2023-05-16T20:47:23.877Z,4.70
2023-05-16T20:49:51.615Z,5.00
2023-05-16T20:52:21.900Z,5.05
2023-05-16T20:54:50.455Z,4.95
2023-05-16T20:57:18.078Z,5.43
2023-05-16T20:59:45.493Z,6.18
2023-05-16T21:02:13.158Z,5.10
2023-05-16T21:04:40.812Z,5.10
2023-05-16T21:07:08.696Z,5.47
2023-05-16T21:09:38.026Z,5.65
2023-05-16T21:12:05.910Z,5.45
2023-05-16T21:14:33.319Z,6.00
2023-05-16T21:17:00.848Z,5.45
2023-05-16T21:19:30.276Z,5.63
2023-05-16T21:21:57.702Z,5.60
2023-05-16T21:24:24.983Z,5.38
2023-05-16T21:26:52.691Z,5.90
2023-05-16T21:29:20.493Z,5.50
2023-05-16T21:31:47.766Z,5.55
2023-05-16T21:34:15.115Z,5.72
2023-05-16T21:36:42.450Z,5.47
2023-05-16T21:39:09.860Z,5.40
2023-05-16T21:41:37.225Z,4.75
2023-05-16T21:44:04.686Z,5.00
2023-05-16T21:46:31.946Z,5.20
2023-05-16T21:48:59.379Z,5.32
2023-05-16T21:51:26.784Z,5.53
2023-05-16T21:53:54.027Z,4.82
2023-05-16T21:56:21.398Z,4.90
2023-05-16T21:58:48.627Z,4.70
2023-05-16T22:01:16.653Z,4.95
2023-05-16T22:03:44.021Z,4.63
2023-05-16T22:06:11.466Z,5.50
2023-05-16T22:08:38.775Z,4.70
2023-05-16T22:11:06.244Z,4.50
2023-05-16T22:13:33.493Z,4.75
2023-05-16T22:16:04.577Z,4.60
2023-05-16T22:18:33.654Z,5.05
2023-05-16T22:21:01.976Z,5.10
2023-05-16T22:23:29.486Z,4.75
2023-05-16T22:25:56.841Z,4.95
2023-05-16T22:28:24.196Z,5.15
2023-05-16T22:30:51.533Z,4.65
2023-05-16T22:33:18.936Z,4.40
2023-05-16T22:35:46.353Z,4.75
2023-05-16T22:38:13.642Z,4.65
2023-05-16T22:40:41.352Z,4.53
2023-05-16T22:43:08.691Z,4.95
2023-05-16T22:45:35.969Z,4.82
2023-05-16T22:48:03.510Z,4.55
2023-05-16T22:50:30.911Z,5.15
2023-05-16T22:52:58.142Z,5.00
2023-05-16T22:55:25.576Z,5.18
2023-05-16T22:57:57.212Z,4.65
2023-05-16T23:00:24.678Z,4.40
2023-05-16T23:02:52.188Z,5.10
2023-05-16T23:05:19.669Z,4.63
2023-05-16T23:07:47.001Z,4.70
2023-05-16T23:10:14.358Z,4.47
2023-05-16T23:12:41.601Z,4.80
2023-05-16T23:15:10.380Z,4.72
2023-05-16T23:17:38.584Z,5.00
2023-05-16T23:20:08.767Z,4.65
2023-05-16T23:22:36.063Z,5.00
2023-05-16T23:25:03.654Z,4.75
2023-05-16T23:27:31.867Z,4.80
2023-05-16T23:29:59.241Z,4.53
2023-05-16T23:32:26.568Z,4.85
2023-05-16T23:34:53.907Z,5.50
2023-05-16T23:37:21.227Z,4.90
2023-05-16T23:39:48.529Z,4.72
2023-05-16T23:42:15.775Z,4.80
2023-05-16T23:44:43.103Z,4.53
2023-05-16T23:47:10.445Z,4.55
2023-05-16T23:49:37.842Z,4.68
2023-05-16T23:52:06.117Z,5.05
2023-05-16T23:54:34.168Z,4.80
2023-05-16T23:57:01.587Z,4.70
2023-05-16T23:59:28.934Z,4.78
